This is the latest recevied weather packets stored in our database for station/object K0VSC-1. If no packets are shown the sender has not sent any weather packets the latest 1 day(s).
| Time | Temp. | Humidity | Pressure | Rain* | Wind** | Luminosity | Snow |
|---|---|---|---|---|---|---|---|
| 1836274694 | 17.22° C | 97% | 1013.6 hPa | 0.25 mm | 0.89 m/s, 105° | 0 W/m² | - |
| 1836274579 | 17.22° C | 97% | 1013.6 hPa | 0.25 mm | 0.89 m/s, 124° | 0 W/m² | - |
| 1836274544 | 17.22° C | 97% | 1013.6 hPa | 0.25 mm | 0.89 m/s, 124° | 0 W/m² | - |
| 1836274395 | 17.22° C | 97% | 1013.5 hPa | 0.25 mm | 0.89 m/s, 121° | 0 W/m² | - |
| 1836274244 | 17.22° C | 97% | 1013.6 hPa | 0.25 mm | 0.89 m/s, 123° | 0 W/m² | - |
| 1836274208 | 17.22° C | 97% | 1013.5 hPa | 0.25 mm | 0.89 m/s, 123° | 0 W/m² | - |
| 1836274094 | 17.22° C | 97% | 1013.5 hPa | 0.25 mm | 0.89 m/s, 123° | 0 W/m² | - |
| 1778041384 | 1.11° C | 62% | 1014.7 hPa | 0 mm | 0.45 m/s, 325° | 0 W/m² | - |
| 1778041084 | 1.11° C | 62% | 1014.8 hPa | 0 mm | 0.45 m/s, 326° | 0 W/m² | - |
| 1778040784 | 1.11° C | 62% | 1014.9 hPa | 0 mm | 0.45 m/s, 331° | 0 W/m² | - |
| 1778040484 | 1.11° C | 62% | 1014.8 hPa | 0 mm | 0.45 m/s, 336° | 0 W/m² | - |
| 1778040184 | 1.11° C | 61% | 1014.8 hPa | 0 mm | 0.45 m/s, 327° | 0 W/m² | - |
| 1778039884 | 1.11° C | 61% | 1014.7 hPa | 0 mm | 0.89 m/s, 327° | 0 W/m² | - |
| 1778039584 | 1.11° C | 61% | 1014.8 hPa | 0 mm | 0.89 m/s, 342° | 0 W/m² | - |
| 1778039284 | 1.11° C | 61% | 1014.6 hPa | 0 mm | 0.89 m/s, 343° | 0 W/m² | - |
| 1778038984 | 1.11° C | 61% | 1014.7 hPa | 0 mm | 0.89 m/s, 346° | 0 W/m² | - |
| 1778038684 | 1.67° C | 61% | 1014.6 hPa | 0 mm | 0.89 m/s, 336° | 0 W/m² | - |
| 1778038384 | 1.67° C | 60% | 1014.6 hPa | 0 mm | 1.34 m/s, 328° | 0 W/m² | - |
| 1778038084 | 1.67° C | 60% | 1014.6 hPa | 0 mm | 1.34 m/s, 355° | 0 W/m² | - |
| 1778037784 | 1.67° C | 60% | 1014.6 hPa | 0 mm | 1.34 m/s, 344° | 0 W/m² | - |
| 1778037484 | 1.67° C | 60% | 1014.6 hPa | 0 mm | 1.34 m/s, 331° | 0 W/m² | - |
| 1778037184 | 1.67° C | 59% | 1014.6 hPa | 0 mm | 1.79 m/s, 350° | 0 W/m² | - |
| 1778036897 | 1.67° C | 59% | 1014.7 hPa | 0 mm | 1.34 m/s, 348° | 0 W/m² | - |
| 1778036584 | 2.22° C | 58% | 1014.7 hPa | 0 mm | 1.34 m/s, 340° | 0 W/m² | - |
| 1778036284 | 2.22° C | 58% | 1014.7 hPa | 0 mm | 1.34 m/s, 346° | 0 W/m² | - |
* Rain latest hour (hover to see other rain measurements)
** Current wind speed in m/s (hover to see current wind gust speed)